KACK/ACK METAR and TAF weather

Enter ICAO airport designator
Station Type Date Time Source
KACK METAR 2018/10/16 19:53 UTC NOAA

KACK 161953Z 27011KT 10SM CLR 12/03 A3002 RMK AO2 SLP165 T01220028


Station Type Date Time Source
KACK Decoded METAR 2018/10/16 19:53 UTC NOAA

NANTUCKET MEMORIAL AIRPORT, MA, United States (KACK) 41-15N 70-04W 16M
Oct 16, 2018 - 03:53 PM EDT / 2018.10.16 1953 UTC
Wind: from the W (270 degrees) at 13 MPH (11 KT):0
Visibility: 10 mile(s):0
Sky conditions: clear
Temperature: 54.0 F (12.2 C)
Dew Point: 37.0 F (2.8 C)
Relative Humidity: 52%
Pressure (altimeter): 30.02 in. Hg (1016 hPa)
ob: KACK 161953Z 27011KT 10SM CLR 12/03 A3002 RMK AO2 SLP165 T01220028
cycle: 20

Station Type Date Time Source
KACK TAF 2018/10/16 18:34 UTC NOAA

TAF KACK 161732Z 1618/1718 28012KT P6SM FEW250
FM162300 26010KT P6SM SKC
FM171500 25018G25KT P6SM FEW250


Example: see airport list